sensor_id;sensor_type;location;lat;lon;timestamp;temperature;humidity
7296;DHT22;40758;54.038;11.684;2022-07-23T00:00:08;15.10;99.90
7296;DHT22;40758;54.038;11.684;2022-07-23T00:02:37;15.00;99.90
7296;DHT22;40758;54.038;11.684;2022-07-23T00:05:10;15.10;99.90
7296;DHT22;40758;54.038;11.684;2022-07-23T00:07:41;15.10;99.90
7296;DHT22;40758;54.038;11.684;2022-07-23T00:10:11;15.10;99.90
7296;DHT22;40758;54.038;11.684;2022-07-23T00:12:40;15.10;99.90
7296;DHT22;40758;54.038;11.684;2022-07-23T00:15:18;15.10;99.90
7296;DHT22;40758;54.038;11.684;2022-07-23T00:17:47;15.10;99.90
7296;DHT22;40758;54.038;11.684;2022-07-23T00:20:16;15.20;99.90
7296;DHT22;40758;54.038;11.684;2022-07-23T00:22:49;15.20;99.90
7296;DHT22;40758;54.038;11.684;2022-07-23T00:25:21;15.20;99.90
7296;DHT22;40758;54.038;11.684;2022-07-23T00:27:56;15.20;99.90
7296;DHT22;40758;54.038;11.684;2022-07-23T00:30:26;15.20;99.90
7296;DHT22;40758;54.038;11.684;2022-07-23T00:32:59;15.20;99.90
7296;DHT22;40758;54.038;11.684;2022-07-23T00:35:30;15.20;99.90
7296;DHT22;40758;54.038;11.684;2022-07-23T00:38:03;15.20;99.90
7296;DHT22;40758;54.038;11.684;2022-07-23T00:40:33;15.20;99.90
7296;DHT22;40758;54.038;11.684;2022-07-23T00:43:04;15.20;99.90
7296;DHT22;40758;54.038;11.684;2022-07-23T00:45:33;15.20;99.90
7296;DHT22;40758;54.038;11.684;2022-07-23T00:48:03;15.10;99.90
7296;DHT22;40758;54.038;11.684;2022-07-23T00:50:32;15.10;99.90
7296;DHT22;40758;54.038;11.684;2022-07-23T00:53:04;15.10;99.90
7296;DHT22;40758;54.038;11.684;2022-07-23T00:55:35;15.10;99.90
7296;DHT22;40758;54.038;11.684;2022-07-23T00:58:06;15.10;99.90
7296;DHT22;40758;54.038;11.684;2022-07-23T01:00:35;15.20;99.90
7296;DHT22;40758;54.038;11.684;2022-07-23T01:03:05;15.10;99.90
7296;DHT22;40758;54.038;11.684;2022-07-23T01:05:34;15.20;99.90
7296;DHT22;40758;54.038;11.684;2022-07-23T01:08:06;15.20;99.90
7296;DHT22;40758;54.038;11.684;2022-07-23T01:10:35;15.20;99.90
7296;DHT22;40758;54.038;11.684;2022-07-23T01:13:06;15.20;99.90
7296;DHT22;40758;54.038;11.684;2022-07-23T01:15:39;15.10;99.90
7296;DHT22;40758;54.038;11.684;2022-07-23T01:18:08;15.10;99.90
7296;DHT22;40758;54.038;11.684;2022-07-23T01:20:40;15.20;99.90
7296;DHT22;40758;54.038;11.684;2022-07-23T01:23:11;15.10;99.90
7296;DHT22;40758;54.038;11.684;2022-07-23T01:25:48;15.20;99.90
7296;DHT22;40758;54.038;11.684;2022-07-23T01:28:18;15.20;99.90
7296;DHT22;40758;54.038;11.684;2022-07-23T01:30:48;15.20;99.90
7296;DHT22;40758;54.038;11.684;2022-07-23T01:33:18;15.20;99.90
7296;DHT22;40758;54.038;11.684;2022-07-23T01:35:48;15.20;99.90
7296;DHT22;40758;54.038;11.684;2022-07-23T01:38:19;15.20;99.90
7296;DHT22;40758;54.038;11.684;2022-07-23T01:40:48;15.20;99.90
7296;DHT22;40758;54.038;11.684;2022-07-23T01:43:21;15.20;99.90
7296;DHT22;40758;54.038;11.684;2022-07-23T01:45:52;15.10;99.90
7296;DHT22;40758;54.038;11.684;2022-07-23T01:48:23;15.10;99.90
7296;DHT22;40758;54.038;11.684;2022-07-23T01:50:52;15.10;99.90
7296;DHT22;40758;54.038;11.684;2022-07-23T01:53:23;15.10;99.90
7296;DHT22;40758;54.038;11.684;2022-07-23T01:55:53;15.00;99.90
7296;DHT22;40758;54.038;11.684;2022-07-23T01:58:21;15.00;99.90
7296;DHT22;40758;54.038;11.684;2022-07-23T02:00:52;14.90;99.90
7296;DHT22;40758;54.038;11.684;2022-07-23T02:03:23;14.90;99.90
7296;DHT22;40758;54.038;11.684;2022-07-23T02:05:53;14.80;99.90
7296;DHT22;40758;54.038;11.684;2022-07-23T02:08:24;14.80;99.90
7296;DHT22;40758;54.038;11.684;2022-07-23T02:10:54;14.80;99.90
7296;DHT22;40758;54.038;11.684;2022-07-23T02:13:23;14.70;99.90
7296;DHT22;40758;54.038;11.684;2022-07-23T02:15:56;14.70;99.90
7296;DHT22;40758;54.038;11.684;2022-07-23T02:18:27;14.70;99.90
7296;DHT22;40758;54.038;11.684;2022-07-23T02:20:56;14.60;99.90
7296;DHT22;40758;54.038;11.684;2022-07-23T02:23:27;14.60;99.90
7296;DHT22;40758;54.038;11.684;2022-07-23T02:25:55;14.60;99.90
7296;DHT22;40758;54.038;11.684;2022-07-23T02:28:24;14.50;99.90
7296;DHT22;40758;54.038;11.684;2022-07-23T02:30:53;14.50;99.90
7296;DHT22;40758;54.038;11.684;2022-07-23T02:33:23;14.40;99.90
7296;DHT22;40758;54.038;11.684;2022-07-23T02:35:52;14.40;99.90
7296;DHT22;40758;54.038;11.684;2022-07-23T02:38:22;14.40;99.90
7296;DHT22;40758;54.038;11.684;2022-07-23T02:40:53;14.30;99.90
7296;DHT22;40758;54.038;11.684;2022-07-23T02:43:22;14.40;99.90
7296;DHT22;40758;54.038;11.684;2022-07-23T02:45:52;14.40;99.90
7296;DHT22;40758;54.038;11.684;2022-07-23T02:48:21;14.50;99.90
7296;DHT22;40758;54.038;11.684;2022-07-23T02:50:50;14.50;99.90
7296;DHT22;40758;54.038;11.684;2022-07-23T02:53:20;14.50;99.90
7296;DHT22;40758;54.038;11.684;2022-07-23T02:55:50;14.50;99.90
7296;DHT22;40758;54.038;11.684;2022-07-23T02:58:23;14.50;99.90
7296;DHT22;40758;54.038;11.684;2022-07-23T03:00:53;14.50;99.90
7296;DHT22;40758;54.038;11.684;2022-07-23T03:03:23;14.50;99.90
7296;DHT22;40758;54.038;11.684;2022-07-23T03:05:56;14.50;99.90
7296;DHT22;40758;54.038;11.684;2022-07-23T03:08:25;14.60;99.90
7296;DHT22;40758;54.038;11.684;2022-07-23T03:10:56;14.60;99.90
7296;DHT22;40758;54.038;11.684;2022-07-23T03:13:27;14.70;99.90
7296;DHT22;40758;54.038;11.684;2022-07-23T03:15:57;14.70;99.90
7296;DHT22;40758;54.038;11.684;2022-07-23T03:18:31;14.70;99.90
7296;DHT22;40758;54.038;11.684;2022-07-23T03:21:08;14.70;99.90
7296;DHT22;40758;54.038;11.684;2022-07-23T03:23:39;14.70;99.90
7296;DHT22;40758;54.038;11.684;2022-07-23T03:26:12;14.80;99.90
7296;DHT22;40758;54.038;11.684;2022-07-23T03:28:41;14.80;99.90
7296;DHT22;40758;54.038;11.684;2022-07-23T03:31:17;14.80;99.90
7296;DHT22;40758;54.038;11.684;2022-07-23T03:33:48;14.80;99.90
7296;DHT22;40758;54.038;11.684;2022-07-23T03:36:18;14.80;99.90
7296;DHT22;40758;54.038;11.684;2022-07-23T03:38:49;14.80;99.90
7296;DHT22;40758;54.038;11.684;2022-07-23T03:41:22;14.80;99.90
7296;DHT22;40758;54.038;11.684;2022-07-23T03:43:53;14.90;99.90
7296;DHT22;40758;54.038;11.684;2022-07-23T03:46:22;14.90;99.90
7296;DHT22;40758;54.038;11.684;2022-07-23T03:48:52;14.90;99.90
7296;DHT22;40758;54.038;11.684;2022-07-23T03:51:25;14.90;99.90
7296;DHT22;40758;54.038;11.684;2022-07-23T03:53:54;14.90;99.90
7296;DHT22;40758;54.038;11.684;2022-07-23T03:56:25;15.00;99.90
7296;DHT22;40758;54.038;11.684;2022-07-23T03:58:54;15.00;99.90
7296;DHT22;40758;54.038;11.684;2022-07-23T04:01:24;15.00;99.90
7296;DHT22;40758;54.038;11.684;2022-07-23T04:03:53;15.00;99.90
7296;DHT22;40758;54.038;11.684;2022-07-23T04:06:22;15.00;99.90
7296;DHT22;40758;54.038;11.684;2022-07-23T04:08:55;15.00;99.90
7296;DHT22;40758;54.038;11.684;2022-07-23T04:11:26;14.90;99.90
7296;DHT22;40758;54.038;11.684;2022-07-23T04:13:55;14.90;99.90
7296;DHT22;40758;54.038;11.684;2022-07-23T04:16:24;14.90;99.90
7296;DHT22;40758;54.038;11.684;2022-07-23T04:18:53;14.90;99.90
7296;DHT22;40758;54.038;11.684;2022-07-23T04:21:23;14.90;99.90
7296;DHT22;40758;54.038;11.684;2022-07-23T04:23:52;14.80;99.90
7296;DHT22;40758;54.038;11.684;2022-07-23T04:26:22;14.80;99.90
7296;DHT22;40758;54.038;11.684;2022-07-23T04:28:53;14.80;99.90
7296;DHT22;40758;54.038;11.684;2022-07-23T04:31:23;14.80;99.90
7296;DHT22;40758;54.038;11.684;2022-07-23T04:33:53;14.80;99.90
7296;DHT22;40758;54.038;11.684;2022-07-23T04:36:22;15.00;99.90
7296;DHT22;40758;54.038;11.684;2022-07-23T04:38:52;15.00;99.90
7296;DHT22;40758;54.038;11.684;2022-07-23T04:41:21;15.10;99.90
7296;DHT22;40758;54.038;11.684;2022-07-23T04:43:52;15.10;99.90
7296;DHT22;40758;54.038;11.684;2022-07-23T04:46:21;15.20;99.90
7296;DHT22;40758;54.038;11.684;2022-07-23T04:48:50;15.20;99.90
7296;DHT22;40758;54.038;11.684;2022-07-23T04:51:20;15.20;99.90
7296;DHT22;40758;54.038;11.684;2022-07-23T04:53:51;15.20;99.90
7296;DHT22;40758;54.038;11.684;2022-07-23T04:56:21;15.20;99.90
7296;DHT22;40758;54.038;11.684;2022-07-23T04:58:53;15.20;99.90
7296;DHT22;40758;54.038;11.684;2022-07-23T05:01:26;15.30;99.90
7296;DHT22;40758;54.038;11.684;2022-07-23T05:03:55;15.30;99.90
7296;DHT22;40758;54.038;11.684;2022-07-23T05:06:24;15.40;99.90
7296;DHT22;40758;54.038;11.684;2022-07-23T05:08:53;15.50;99.90
7296;DHT22;40758;54.038;11.684;2022-07-23T05:11:24;15.60;99.90
7296;DHT22;40758;54.038;11.684;2022-07-23T05:13:55;15.70;99.90
7296;DHT22;40758;54.038;11.684;2022-07-23T05:16:24;15.60;99.90
7296;DHT22;40758;54.038;11.684;2022-07-23T05:18:54;15.60;99.90
7296;DHT22;40758;54.038;11.684;2022-07-23T05:21:23;15.60;99.90
7296;DHT22;40758;54.038;11.684;2022-07-23T05:23:52;15.60;99.90
7296;DHT22;40758;54.038;11.684;2022-07-23T05:26:22;15.70;99.90
7296;DHT22;40758;54.038;11.684;2022-07-23T05:28:51;15.70;99.90
7296;DHT22;40758;54.038;11.684;2022-07-23T05:31:22;15.80;99.90
7296;DHT22;40758;54.038;11.684;2022-07-23T05:33:51;15.80;99.90
7296;DHT22;40758;54.038;11.684;2022-07-23T05:36:21;15.80;99.90
7296;DHT22;40758;54.038;11.684;2022-07-23T05:38:50;15.80;99.90
7296;DHT22;40758;54.038;11.684;2022-07-23T05:41:19;15.90;99.90
7296;DHT22;40758;54.038;11.684;2022-07-23T05:43:48;15.90;99.90
7296;DHT22;40758;54.038;11.684;2022-07-23T05:46:17;16.00;99.90
7296;DHT22;40758;54.038;11.684;2022-07-23T05:48:48;16.10;99.90
7296;DHT22;40758;54.038;11.684;2022-07-23T05:51:21;16.10;99.90
7296;DHT22;40758;54.038;11.684;2022-07-23T05:53:51;16.10;99.90
7296;DHT22;40758;54.038;11.684;2022-07-23T05:56:20;16.10;99.90
7296;DHT22;40758;54.038;11.684;2022-07-23T05:58:49;16.10;99.90
7296;DHT22;40758;54.038;11.684;2022-07-23T06:01:19;16.00;99.90
7296;DHT22;40758;54.038;11.684;2022-07-23T06:03:49;16.00;99.90
7296;DHT22;40758;54.038;11.684;2022-07-23T06:06:19;16.00;99.90
7296;DHT22;40758;54.038;11.684;2022-07-23T06:08:48;16.10;99.90
7296;DHT22;40758;54.038;11.684;2022-07-23T06:11:18;16.20;99.90
7296;DHT22;40758;54.038;11.684;2022-07-23T06:13:47;16.20;99.90
7296;DHT22;40758;54.038;11.684;2022-07-23T06:16:16;16.20;99.90
7296;DHT22;40758;54.038;11.684;2022-07-23T06:18:45;16.10;99.90
7296;DHT22;40758;54.038;11.684;2022-07-23T06:21:15;16.00;99.90
7296;DHT22;40758;54.038;11.684;2022-07-23T06:24:06;16.00;99.90
7296;DHT22;40758;54.038;11.684;2022-07-23T06:26:35;16.00;99.90
7296;DHT22;40758;54.038;11.684;2022-07-23T06:29:04;16.00;99.90
7296;DHT22;40758;54.038;11.684;2022-07-23T06:31:34;16.00;99.90
7296;DHT22;40758;54.038;11.684;2022-07-23T06:34:03;16.00;99.90
7296;DHT22;40758;54.038;11.684;2022-07-23T06:36:34;16.10;99.90
7296;DHT22;40758;54.038;11.684;2022-07-23T06:39:04;16.10;99.90
7296;DHT22;40758;54.038;11.684;2022-07-23T06:41:35;16.20;99.90
7296;DHT22;40758;54.038;11.684;2022-07-23T06:44:04;16.20;99.90
7296;DHT22;40758;54.038;11.684;2022-07-23T06:46:33;16.30;99.90
7296;DHT22;40758;54.038;11.684;2022-07-23T06:49:03;16.40;99.90
7296;DHT22;40758;54.038;11.684;2022-07-23T06:51:35;16.50;99.90
7296;DHT22;40758;54.038;11.684;2022-07-23T06:54:04;16.60;99.90
7296;DHT22;40758;54.038;11.684;2022-07-23T06:56:34;16.90;99.90
7296;DHT22;40758;54.038;11.684;2022-07-23T06:59:03;17.30;99.90
7296;DHT22;40758;54.038;11.684;2022-07-23T07:01:32;17.90;99.90
7296;DHT22;40758;54.038;11.684;2022-07-23T07:04:01;18.40;99.90
7296;DHT22;40758;54.038;11.684;2022-07-23T07:06:31;18.40;99.90
7296;DHT22;40758;54.038;11.684;2022-07-23T07:09:03;18.30;99.90
7296;DHT22;40758;54.038;11.684;2022-07-23T07:11:33;18.90;99.90
7296;DHT22;40758;54.038;11.684;2022-07-23T07:14:02;19.20;99.90
7296;DHT22;40758;54.038;11.684;2022-07-23T07:16:33;18.60;99.90
7296;DHT22;40758;54.038;11.684;2022-07-23T07:19:03;18.20;99.90
7296;DHT22;40758;54.038;11.684;2022-07-23T07:21:33;18.20;99.90
7296;DHT22;40758;54.038;11.684;2022-07-23T07:24:04;18.10;99.90
7296;DHT22;40758;54.038;11.684;2022-07-23T07:26:34;17.80;99.90
7296;DHT22;40758;54.038;11.684;2022-07-23T07:29:03;18.00;99.90
7296;DHT22;40758;54.038;11.684;2022-07-23T07:31:32;18.00;99.90
7296;DHT22;40758;54.038;11.684;2022-07-23T07:34:02;17.90;99.90
7296;DHT22;40758;54.038;11.684;2022-07-23T07:36:33;17.80;99.90
7296;DHT22;40758;54.038;11.684;2022-07-23T07:39:06;17.70;99.90
7296;DHT22;40758;54.038;11.684;2022-07-23T07:41:38;17.50;99.90
7296;DHT22;40758;54.038;11.684;2022-07-23T07:44:07;17.50;99.90
7296;DHT22;40758;54.038;11.684;2022-07-23T07:46:37;17.50;99.90
7296;DHT22;40758;54.038;11.684;2022-07-23T07:49:06;17.40;99.90
7296;DHT22;40758;54.038;11.684;2022-07-23T07:51:41;17.30;99.90
7296;DHT22;40758;54.038;11.684;2022-07-23T07:54:13;17.30;99.90
7296;DHT22;40758;54.038;11.684;2022-07-23T07:56:44;17.50;99.90
7296;DHT22;40758;54.038;11.684;2022-07-23T07:59:13;17.80;99.90
7296;DHT22;40758;54.038;11.684;2022-07-23T08:01:43;18.30;99.90
7296;DHT22;40758;54.038;11.684;2022-07-23T08:04:18;18.80;99.90
7296;DHT22;40758;54.038;11.684;2022-07-23T08:06:47;19.00;99.90
7296;DHT22;40758;54.038;11.684;2022-07-23T08:09:18;19.40;99.90
7296;DHT22;40758;54.038;11.684;2022-07-23T08:11:47;19.90;99.90
7296;DHT22;40758;54.038;11.684;2022-07-23T08:14:18;20.00;99.90
7296;DHT22;40758;54.038;11.684;2022-07-23T08:16:47;19.70;99.90
7296;DHT22;40758;54.038;11.684;2022-07-23T08:19:36;19.20;99.90
7296;DHT22;40758;54.038;11.684;2022-07-23T08:22:05;18.70;99.90
7296;DHT22;40758;54.038;11.684;2022-07-23T08:24:35;19.40;99.90
7296;DHT22;40758;54.038;11.684;2022-07-23T08:27:04;20.10;99.90
7296;DHT22;40758;54.038;11.684;2022-07-23T08:29:33;20.00;99.90
7296;DHT22;40758;54.038;11.684;2022-07-23T08:32:04;19.40;99.90
7296;DHT22;40758;54.038;11.684;2022-07-23T08:34:53;19.20;99.90
7296;DHT22;40758;54.038;11.684;2022-07-23T08:37:22;19.30;99.90
7296;DHT22;40758;54.038;11.684;2022-07-23T08:39:52;20.50;99.90
7296;DHT22;40758;54.038;11.684;2022-07-23T08:42:24;21.00;99.90
7296;DHT22;40758;54.038;11.684;2022-07-23T08:44:54;20.80;99.90
7296;DHT22;40758;54.038;11.684;2022-07-23T08:47:22;20.90;99.90
7296;DHT22;40758;54.038;11.684;2022-07-23T08:49:56;20.80;99.90
7296;DHT22;40758;54.038;11.684;2022-07-23T08:52:30;20.70;99.90
7296;DHT22;40758;54.038;11.684;2022-07-23T08:55:02;20.50;99.90
7296;DHT22;40758;54.038;11.684;2022-07-23T08:57:32;20.10;99.90
7296;DHT22;40758;54.038;11.684;2022-07-23T09:00:01;20.00;99.90
7296;DHT22;40758;54.038;11.684;2022-07-23T09:02:30;19.60;99.90
7296;DHT22;40758;54.038;11.684;2022-07-23T09:05:00;19.30;99.90
7296;DHT22;40758;54.038;11.684;2022-07-23T09:07:29;19.30;99.90
7296;DHT22;40758;54.038;11.684;2022-07-23T09:10:07;19.50;99.90
7296;DHT22;40758;54.038;11.684;2022-07-23T09:12:39;20.10;99.90
7296;DHT22;40758;54.038;11.684;2022-07-23T09:15:09;20.60;99.90
7296;DHT22;40758;54.038;11.684;2022-07-23T09:17:42;20.40;99.90
7296;DHT22;40758;54.038;11.684;2022-07-23T09:20:14;20.50;99.90
7296;DHT22;40758;54.038;11.684;2022-07-23T09:22:46;20.30;99.90
7296;DHT22;40758;54.038;11.684;2022-07-23T09:25:19;20.00;99.90
7296;DHT22;40758;54.038;11.684;2022-07-23T09:27:51;20.10;99.90
7296;DHT22;40758;54.038;11.684;2022-07-23T09:30:23;20.50;99.90
7296;DHT22;40758;54.038;11.684;2022-07-23T09:33:07;20.50;99.90
7296;DHT22;40758;54.038;11.684;2022-07-23T09:35:51;20.80;99.90
7296;DHT22;40758;54.038;11.684;2022-07-23T09:38:22;21.30;99.90
7296;DHT22;40758;54.038;11.684;2022-07-23T09:41:07;20.90;99.90
7296;DHT22;40758;54.038;11.684;2022-07-23T09:43:37;21.00;99.90
7296;DHT22;40758;54.038;11.684;2022-07-23T09:46:20;20.40;99.90
7296;DHT22;40758;54.038;11.684;2022-07-23T09:48:54;20.20;99.90
7296;DHT22;40758;54.038;11.684;2022-07-23T09:51:25;19.70;99.90
7296;DHT22;40758;54.038;11.684;2022-07-23T09:53:58;19.30;99.90
7296;DHT22;40758;54.038;11.684;2022-07-23T09:56:28;19.10;99.90
7296;DHT22;40758;54.038;11.684;2022-07-23T09:58:58;19.10;99.90
7296;DHT22;40758;54.038;11.684;2022-07-23T10:01:33;19.10;99.90
7296;DHT22;40758;54.038;11.684;2022-07-23T10:04:03;19.20;99.90
7296;DHT22;40758;54.038;11.684;2022-07-23T10:06:34;19.20;99.90
7296;DHT22;40758;54.038;11.684;2022-07-23T10:09:04;19.00;99.90
7296;DHT22;40758;54.038;11.684;2022-07-23T10:11:35;18.70;99.90
7296;DHT22;40758;54.038;11.684;2022-07-23T10:14:05;18.60;99.90
7296;DHT22;40758;54.038;11.684;2022-07-23T10:16:34;18.80;99.90
7296;DHT22;40758;54.038;11.684;2022-07-23T10:19:03;19.00;99.90
7296;DHT22;40758;54.038;11.684;2022-07-23T10:21:38;19.00;99.90
7296;DHT22;40758;54.038;11.684;2022-07-23T10:24:18;19.40;99.90
7296;DHT22;40758;54.038;11.684;2022-07-23T10:27:09;19.50;99.90
7296;DHT22;40758;54.038;11.684;2022-07-23T10:30:02;19.70;99.90
7296;DHT22;40758;54.038;11.684;2022-07-23T10:32:40;20.20;99.90
7296;DHT22;40758;54.038;11.684;2022-07-23T10:35:25;20.20;99.90
7296;DHT22;40758;54.038;11.684;2022-07-23T10:38:07;20.00;99.90
7296;DHT22;40758;54.038;11.684;2022-07-23T10:40:54;19.90;99.90
7296;DHT22;40758;54.038;11.684;2022-07-23T10:43:27;20.10;99.90
7296;DHT22;40758;54.038;11.684;2022-07-23T10:46:23;20.40;99.90
7296;DHT22;40758;54.038;11.684;2022-07-23T10:49:25;20.80;99.90
7296;DHT22;40758;54.038;11.684;2022-07-23T10:52:25;21.10;99.90
7296;DHT22;40758;54.038;11.684;2022-07-23T10:54:56;22.50;99.90
7296;DHT22;40758;54.038;11.684;2022-07-23T10:58:04;22.60;99.90
7296;DHT22;40758;54.038;11.684;2022-07-23T11:00:36;22.70;99.90
7296;DHT22;40758;54.038;11.684;2022-07-23T11:03:30;21.90;99.90
7296;DHT22;40758;54.038;11.684;2022-07-23T11:06:03;21.80;99.90
7296;DHT22;40758;54.038;11.684;2022-07-23T11:08:34;22.30;99.90
7296;DHT22;40758;54.038;11.684;2022-07-23T11:11:10;21.90;99.90
7296;DHT22;40758;54.038;11.684;2022-07-23T11:13:49;21.60;99.90
7296;DHT22;40758;54.038;11.684;2022-07-23T11:16:25;21.10;99.90
7296;DHT22;40758;54.038;11.684;2022-07-23T11:21:46;20.80;99.90
7296;DHT22;40758;54.038;11.684;2022-07-23T11:24:20;21.00;99.90
7296;DHT22;40758;54.038;11.684;2022-07-23T11:27:01;21.40;99.90
7296;DHT22;40758;54.038;11.684;2022-07-23T11:29:39;21.50;99.90
7296;DHT22;40758;54.038;11.684;2022-07-23T11:32:34;21.50;99.90
7296;DHT22;40758;54.038;11.684;2022-07-23T11:35:24;21.00;99.90
7296;DHT22;40758;54.038;11.684;2022-07-23T11:38:04;20.40;99.90
7296;DHT22;40758;54.038;11.684;2022-07-23T11:40:34;20.40;99.90
7296;DHT22;40758;54.038;11.684;2022-07-23T11:43:06;20.60;99.90
7296;DHT22;40758;54.038;11.684;2022-07-23T11:45:38;21.00;99.90
7296;DHT22;40758;54.038;11.684;2022-07-23T11:48:16;20.70;99.90
7296;DHT22;40758;54.038;11.684;2022-07-23T11:50:47;20.50;99.90
7296;DHT22;40758;54.038;11.684;2022-07-23T11:53:22;20.70;99.90
7296;DHT22;40758;54.038;11.684;2022-07-23T11:55:52;20.80;99.90
7296;DHT22;40758;54.038;11.684;2022-07-23T11:58:22;20.60;99.90
7296;DHT22;40758;54.038;11.684;2022-07-23T12:00:51;20.50;99.90
7296;DHT22;40758;54.038;11.684;2022-07-23T12:03:25;20.80;99.90
7296;DHT22;40758;54.038;11.684;2022-07-23T12:05:58;21.00;99.90
7296;DHT22;40758;54.038;11.684;2022-07-23T12:08:28;21.00;99.90
7296;DHT22;40758;54.038;11.684;2022-07-23T12:10:57;20.90;99.90
7296;DHT22;40758;54.038;11.684;2022-07-23T12:13:30;21.20;99.90
7296;DHT22;40758;54.038;11.684;2022-07-23T12:16:06;21.30;99.90
7296;DHT22;40758;54.038;11.684;2022-07-23T12:18:40;21.70;99.90
7296;DHT22;40758;54.038;11.684;2022-07-23T12:21:09;22.00;99.90
7296;DHT22;40758;54.038;11.684;2022-07-23T12:23:42;22.10;99.90
7296;DHT22;40758;54.038;11.684;2022-07-23T12:26:15;21.80;99.90
7296;DHT22;40758;54.038;11.684;2022-07-23T12:28:52;21.30;99.90
7296;DHT22;40758;54.038;11.684;2022-07-23T12:31:26;21.00;99.90
7296;DHT22;40758;54.038;11.684;2022-07-23T12:33:57;20.80;99.90
7296;DHT22;40758;54.038;11.684;2022-07-23T12:36:37;20.90;99.90
7296;DHT22;40758;54.038;11.684;2022-07-23T12:39:08;21.20;99.90
7296;DHT22;40758;54.038;11.684;2022-07-23T12:41:53;21.50;99.90
7296;DHT22;40758;54.038;11.684;2022-07-23T12:44:24;21.60;99.90
7296;DHT22;40758;54.038;11.684;2022-07-23T12:46:54;22.00;99.90
7296;DHT22;40758;54.038;11.684;2022-07-23T12:49:28;22.20;99.90
7296;DHT22;40758;54.038;11.684;2022-07-23T12:51:57;21.60;99.90
7296;DHT22;40758;54.038;11.684;2022-07-23T12:54:27;21.40;99.90
7296;DHT22;40758;54.038;11.684;2022-07-23T12:56:57;21.30;99.90
7296;DHT22;40758;54.038;11.684;2022-07-23T12:59:31;20.90;99.90
7296;DHT22;40758;54.038;11.684;2022-07-23T13:02:00;20.90;99.90
7296;DHT22;40758;54.038;11.684;2022-07-23T13:04:32;21.20;99.90
7296;DHT22;40758;54.038;11.684;2022-07-23T13:07:02;21.30;99.90
7296;DHT22;40758;54.038;11.684;2022-07-23T13:09:33;21.30;99.90
7296;DHT22;40758;54.038;11.684;2022-07-23T13:12:09;21.80;99.90
7296;DHT22;40758;54.038;11.684;2022-07-23T13:14:39;22.50;99.90
7296;DHT22;40758;54.038;11.684;2022-07-23T13:17:08;22.90;99.90
7296;DHT22;40758;54.038;11.684;2022-07-23T13:19:41;23.30;99.90
7296;DHT22;40758;54.038;11.684;2022-07-23T13:22:13;23.50;99.90
7296;DHT22;40758;54.038;11.684;2022-07-23T13:24:42;24.00;99.90
7296;DHT22;40758;54.038;11.684;2022-07-23T13:27:12;24.40;99.90
7296;DHT22;40758;54.038;11.684;2022-07-23T13:29:43;24.10;99.90
7296;DHT22;40758;54.038;11.684;2022-07-23T13:32:12;24.30;99.90
7296;DHT22;40758;54.038;11.684;2022-07-23T13:34:43;24.50;99.90
7296;DHT22;40758;54.038;11.684;2022-07-23T13:37:12;25.10;99.90
7296;DHT22;40758;54.038;11.684;2022-07-23T13:39:44;25.30;99.90
7296;DHT22;40758;54.038;11.684;2022-07-23T13:42:14;25.30;99.90
7296;DHT22;40758;54.038;11.684;2022-07-23T13:44:44;25.20;99.90
7296;DHT22;40758;54.038;11.684;2022-07-23T13:47:14;26.00;99.90
7296;DHT22;40758;54.038;11.684;2022-07-23T13:49:49;26.00;99.90
7296;DHT22;40758;54.038;11.684;2022-07-23T13:52:21;25.40;99.90
7296;DHT22;40758;54.038;11.684;2022-07-23T13:54:56;24.60;99.90
7296;DHT22;40758;54.038;11.684;2022-07-23T13:57:26;23.90;99.90
7296;DHT22;40758;54.038;11.684;2022-07-23T13:59:55;23.30;99.90
7296;DHT22;40758;54.038;11.684;2022-07-23T14:02:35;23.20;99.90
7296;DHT22;40758;54.038;11.684;2022-07-23T14:05:12;22.80;99.90
7296;DHT22;40758;54.038;11.684;2022-07-23T14:07:41;22.20;99.90
7296;DHT22;40758;54.038;11.684;2022-07-23T14:10:12;22.00;99.90
7296;DHT22;40758;54.038;11.684;2022-07-23T14:12:41;21.80;99.90
7296;DHT22;40758;54.038;11.684;2022-07-23T14:15:11;21.80;99.90
7296;DHT22;40758;54.038;11.684;2022-07-23T14:17:43;22.10;99.90
7296;DHT22;40758;54.038;11.684;2022-07-23T14:20:15;22.50;99.90
7296;DHT22;40758;54.038;11.684;2022-07-23T14:22:45;22.90;99.90
7296;DHT22;40758;54.038;11.684;2022-07-23T14:25:14;23.40;99.90
7296;DHT22;40758;54.038;11.684;2022-07-23T14:27:44;23.80;99.90
7296;DHT22;40758;54.038;11.684;2022-07-23T14:30:14;24.40;99.90
7296;DHT22;40758;54.038;11.684;2022-07-23T14:32:49;24.90;99.90
7296;DHT22;40758;54.038;11.684;2022-07-23T14:35:20;25.30;99.90
7296;DHT22;40758;54.038;11.684;2022-07-23T14:37:50;25.10;99.90
7296;DHT22;40758;54.038;11.684;2022-07-23T14:40:21;25.10;99.90
7296;DHT22;40758;54.038;11.684;2022-07-23T14:42:50;25.40;99.90
7296;DHT22;40758;54.038;11.684;2022-07-23T14:45:20;25.20;99.90
7296;DHT22;40758;54.038;11.684;2022-07-23T14:47:49;25.10;99.90
7296;DHT22;40758;54.038;11.684;2022-07-23T14:50:21;24.90;99.90
7296;DHT22;40758;54.038;11.684;2022-07-23T14:52:50;23.60;99.90
7296;DHT22;40758;54.038;11.684;2022-07-23T14:55:20;23.70;99.90
7296;DHT22;40758;54.038;11.684;2022-07-23T14:57:52;23.70;99.90
7296;DHT22;40758;54.038;11.684;2022-07-23T15:00:20;23.50;99.90
7296;DHT22;40758;54.038;11.684;2022-07-23T15:02:50;22.60;99.90
7296;DHT22;40758;54.038;11.684;2022-07-23T15:05:24;21.80;99.90
7296;DHT22;40758;54.038;11.684;2022-07-23T15:07:53;21.00;99.90
7296;DHT22;40758;54.038;11.684;2022-07-23T15:10:22;20.50;99.90
7296;DHT22;40758;54.038;11.684;2022-07-23T15:12:51;20.50;99.90
7296;DHT22;40758;54.038;11.684;2022-07-23T15:15:20;20.50;99.90
7296;DHT22;40758;54.038;11.684;2022-07-23T15:17:50;20.40;99.90
7296;DHT22;40758;54.038;11.684;2022-07-23T15:20:21;20.60;99.90
7296;DHT22;40758;54.038;11.684;2022-07-23T15:23:08;20.70;99.90
7296;DHT22;40758;54.038;11.684;2022-07-23T15:25:36;20.70;99.90
7296;DHT22;40758;54.038;11.684;2022-07-23T15:28:16;20.60;99.90
7296;DHT22;40758;54.038;11.684;2022-07-23T15:30:48;20.50;99.90
7296;DHT22;40758;54.038;11.684;2022-07-23T15:33:18;20.40;99.90
7296;DHT22;40758;54.038;11.684;2022-07-23T15:35:51;20.00;99.90
7296;DHT22;40758;54.038;11.684;2022-07-23T15:38:24;19.40;99.90
7296;DHT22;40758;54.038;11.684;2022-07-23T15:40:57;19.10;99.90
7296;DHT22;40758;54.038;11.684;2022-07-23T15:43:26;18.90;99.90
7296;DHT22;40758;54.038;11.684;2022-07-23T15:45:55;18.80;99.90
7296;DHT22;40758;54.038;11.684;2022-07-23T15:48:26;18.80;99.90
7296;DHT22;40758;54.038;11.684;2022-07-23T15:50:56;18.70;99.90
7296;DHT22;40758;54.038;11.684;2022-07-23T15:53:27;18.70;99.90
7296;DHT22;40758;54.038;11.684;2022-07-23T15:56:06;18.70;99.90
7296;DHT22;40758;54.038;11.684;2022-07-23T15:58:43;18.70;99.90
7296;DHT22;40758;54.038;11.684;2022-07-23T16:01:19;18.70;99.90